KGVE/GVE METAR and TAF weather

Enter ICAO airport designator
Station Type Date Time Source
KGVE METAR 2020/07/02 18:35 UTC NOAA

KGVE 021835Z AUTO 04006KT 10SM SCT050 SCT065 29/18 A2993 RMK AO1 T02920177


Station Type Date Time Source
KGVE Decoded METAR 2020/07/02 18:35 UTC NOAA

Station name not available
Jul 02, 2020 - 02:35 PM EDT / 2020.07.02 1835 UTC
Wind: from the NE (040 degrees) at 7 MPH (6 KT):0
Visibility: 10 mile(s):0
Sky conditions: partly cloudy
Temperature: 84.6 F (29.2 C)
Dew Point: 63.9 F (17.7 C)
Relative Humidity: 49%
Pressure (altimeter): 29.93 in. Hg (1013 hPa)
ob: KGVE 021835Z AUTO 04006KT 10SM SCT050 SCT065 29/18 A2993 RMK AO1 T02920177
cycle: 18

Station Type Date Time Source
KGVE TAF UTC NOAA

Error!

Example: see airport list